sensor_id;sensor_type;location;lat;lon;timestamp;P1;durP1;ratioP1;P2;durP2;ratioP2
19547;SDS011;9919;58.014;11.826;2023-07-29T00:01:41;0.80;;;0.80;;
19547;SDS011;9919;58.014;11.826;2023-07-29T00:03:43;1.00;;;1.00;;
19547;SDS011;9919;58.014;11.826;2023-07-29T00:05:45;1.65;;;1.00;;
19547;SDS011;9919;58.014;11.826;2023-07-29T00:07:47;0.90;;;0.90;;
19547;SDS011;9919;58.014;11.826;2023-07-29T00:09:48;0.85;;;0.85;;
19547;SDS011;9919;58.014;11.826;2023-07-29T00:11:49;0.77;;;0.77;;
19547;SDS011;9919;58.014;11.826;2023-07-29T00:13:51;0.60;;;0.60;;
19547;SDS011;9919;58.014;11.826;2023-07-29T00:15:53;0.68;;;0.68;;
19547;SDS011;9919;58.014;11.826;2023-07-29T00:17:55;1.65;;;0.95;;
19547;SDS011;9919;58.014;11.826;2023-07-29T00:19:57;0.80;;;0.80;;
19547;SDS011;9919;58.014;11.826;2023-07-29T00:21:58;0.68;;;0.68;;
19547;SDS011;9919;58.014;11.826;2023-07-29T00:23:59;0.80;;;0.80;;
19547;SDS011;9919;58.014;11.826;2023-07-29T00:26:01;0.90;;;0.90;;
19547;SDS011;9919;58.014;11.826;2023-07-29T00:28:03;0.73;;;0.73;;
19547;SDS011;9919;58.014;11.826;2023-07-29T00:30:04;0.98;;;0.85;;
19547;SDS011;9919;58.014;11.826;2023-07-29T00:32:06;0.70;;;0.70;;
19547;SDS011;9919;58.014;11.826;2023-07-29T00:34:07;1.33;;;0.93;;
19547;SDS011;9919;58.014;11.826;2023-07-29T00:36:09;1.10;;;0.88;;
19547;SDS011;9919;58.014;11.826;2023-07-29T00:38:11;1.55;;;0.98;;
19547;SDS011;9919;58.014;11.826;2023-07-29T00:40:19;0.60;;;0.60;;
19547;SDS011;9919;58.014;11.826;2023-07-29T00:42:21;0.75;;;0.75;;
19547;SDS011;9919;58.014;11.826;2023-07-29T00:44:22;1.15;;;1.05;;
19547;SDS011;9919;58.014;11.826;2023-07-29T00:46:24;0.88;;;0.88;;
19547;SDS011;9919;58.014;11.826;2023-07-29T00:48:25;0.50;;;0.50;;
19547;SDS011;9919;58.014;11.826;2023-07-29T00:50:27;0.98;;;0.90;;
19547;SDS011;9919;58.014;11.826;2023-07-29T00:52:30;0.80;;;0.80;;
19547;SDS011;9919;58.014;11.826;2023-07-29T00:54:31;1.02;;;1.02;;
19547;SDS011;9919;58.014;11.826;2023-07-29T00:56:32;0.75;;;0.75;;
19547;SDS011;9919;58.014;11.826;2023-07-29T00:58:34;1.25;;;1.20;;
19547;SDS011;9919;58.014;11.826;2023-07-29T01:00:36;1.33;;;1.23;;
19547;SDS011;9919;58.014;11.826;2023-07-29T01:02:38;0.82;;;0.82;;
19547;SDS011;9919;58.014;11.826;2023-07-29T01:04:39;0.75;;;0.75;;
19547;SDS011;9919;58.014;11.826;2023-07-29T01:09:07;1.00;;;1.00;;
19547;SDS011;9919;58.014;11.826;2023-07-29T01:11:29;0.90;;;0.90;;
19547;SDS011;9919;58.014;11.826;2023-07-29T01:13:48;0.65;;;0.65;;
19547;SDS011;9919;58.014;11.826;2023-07-29T01:15:55;1.15;;;0.82;;
19547;SDS011;9919;58.014;11.826;2023-07-29T01:18:04;0.70;;;0.70;;
19547;SDS011;9919;58.014;11.826;2023-07-29T01:20:13;0.88;;;0.88;;
19547;SDS011;9919;58.014;11.826;2023-07-29T01:22:16;1.58;;;1.10;;
19547;SDS011;9919;58.014;11.826;2023-07-29T01:24:17;1.02;;;0.95;;
19547;SDS011;9919;58.014;11.826;2023-07-29T01:26:19;0.77;;;0.77;;
19547;SDS011;9919;58.014;11.826;2023-07-29T01:28:20;0.90;;;0.90;;
19547;SDS011;9919;58.014;11.826;2023-07-29T01:30:22;0.90;;;0.90;;
19547;SDS011;9919;58.014;11.826;2023-07-29T01:32:32;0.95;;;0.95;;
19547;SDS011;9919;58.014;11.826;2023-07-29T01:34:46;0.80;;;0.80;;
19547;SDS011;9919;58.014;11.826;2023-07-29T01:36:49;1.00;;;1.00;;
19547;SDS011;9919;58.014;11.826;2023-07-29T01:38:51;0.63;;;0.63;;
19547;SDS011;9919;58.014;11.826;2023-07-29T01:40:53;0.82;;;0.82;;
19547;SDS011;9919;58.014;11.826;2023-07-29T01:42:54;1.00;;;1.00;;
19547;SDS011;9919;58.014;11.826;2023-07-29T01:44:56;0.63;;;0.63;;
19547;SDS011;9919;58.014;11.826;2023-07-29T01:46:59;0.90;;;0.90;;
19547;SDS011;9919;58.014;11.826;2023-07-29T01:49:00;1.05;;;1.00;;
19547;SDS011;9919;58.014;11.826;2023-07-29T01:51:02;0.80;;;0.80;;
19547;SDS011;9919;58.014;11.826;2023-07-29T01:53:04;0.98;;;0.98;;
19547;SDS011;9919;58.014;11.826;2023-07-29T01:55:05;0.90;;;0.80;;
19547;SDS011;9919;58.014;11.826;2023-07-29T01:57:07;0.80;;;0.80;;
19547;SDS011;9919;58.014;11.826;2023-07-29T01:59:09;0.90;;;0.90;;
19547;SDS011;9919;58.014;11.826;2023-07-29T02:01:10;0.80;;;0.80;;
19547;SDS011;9919;58.014;11.826;2023-07-29T02:03:11;0.60;;;0.60;;
19547;SDS011;9919;58.014;11.826;2023-07-29T02:05:14;1.08;;;0.98;;
19547;SDS011;9919;58.014;11.826;2023-07-29T02:07:15;1.00;;;1.00;;
19547;SDS011;9919;58.014;11.826;2023-07-29T02:09:17;0.80;;;0.80;;
19547;SDS011;9919;58.014;11.826;2023-07-29T02:11:19;1.05;;;0.95;;
19547;SDS011;9919;58.014;11.826;2023-07-29T02:13:27;0.98;;;0.98;;
19547;SDS011;9919;58.014;11.826;2023-07-29T02:15:28;1.08;;;1.05;;
19547;SDS011;9919;58.014;11.826;2023-07-29T02:17:30;0.98;;;0.98;;
19547;SDS011;9919;58.014;11.826;2023-07-29T02:19:32;0.80;;;0.80;;
19547;SDS011;9919;58.014;11.826;2023-07-29T02:21:33;1.15;;;1.08;;
19547;SDS011;9919;58.014;11.826;2023-07-29T02:23:35;0.82;;;0.82;;
19547;SDS011;9919;58.014;11.826;2023-07-29T02:25:36;0.93;;;0.93;;
19547;SDS011;9919;58.014;11.826;2023-07-29T02:27:38;0.95;;;0.95;;
19547;SDS011;9919;58.014;11.826;2023-07-29T02:29:39;1.00;;;1.00;;
19547;SDS011;9919;58.014;11.826;2023-07-29T02:31:41;1.30;;;1.20;;
19547;SDS011;9919;58.014;11.826;2023-07-29T02:33:44;1.00;;;1.00;;
19547;SDS011;9919;58.014;11.826;2023-07-29T02:35:46;1.20;;;0.98;;
19547;SDS011;9919;58.014;11.826;2023-07-29T02:37:47;0.70;;;0.68;;
19547;SDS011;9919;58.014;11.826;2023-07-29T02:39:48;0.70;;;0.70;;
19547;SDS011;9919;58.014;11.826;2023-07-29T02:41:50;0.73;;;0.73;;
19547;SDS011;9919;58.014;11.826;2023-07-29T02:43:51;1.00;;;1.00;;
19547;SDS011;9919;58.014;11.826;2023-07-29T02:45:53;1.20;;;1.20;;
19547;SDS011;9919;58.014;11.826;2023-07-29T02:47:54;0.85;;;0.85;;
19547;SDS011;9919;58.014;11.826;2023-07-29T02:49:55;0.68;;;0.68;;
19547;SDS011;9919;58.014;11.826;2023-07-29T02:51:57;0.90;;;0.90;;
19547;SDS011;9919;58.014;11.826;2023-07-29T02:53:59;0.85;;;0.85;;
19547;SDS011;9919;58.014;11.826;2023-07-29T02:56:00;0.90;;;0.90;;
19547;SDS011;9919;58.014;11.826;2023-07-29T02:58:02;0.95;;;0.95;;
19547;SDS011;9919;58.014;11.826;2023-07-29T03:00:04;0.93;;;0.93;;
19547;SDS011;9919;58.014;11.826;2023-07-29T03:02:07;0.88;;;0.88;;
19547;SDS011;9919;58.014;11.826;2023-07-29T03:04:09;2.00;;;1.17;;
19547;SDS011;9919;58.014;11.826;2023-07-29T03:06:14;0.70;;;0.70;;
19547;SDS011;9919;58.014;11.826;2023-07-29T03:08:16;1.00;;;1.00;;
19547;SDS011;9919;58.014;11.826;2023-07-29T03:10:17;1.67;;;1.13;;
19547;SDS011;9919;58.014;11.826;2023-07-29T03:12:20;0.80;;;0.80;;
19547;SDS011;9919;58.014;11.826;2023-07-29T03:14:22;0.93;;;0.93;;
19547;SDS011;9919;58.014;11.826;2023-07-29T03:16:23;0.70;;;0.70;;
19547;SDS011;9919;58.014;11.826;2023-07-29T03:18:25;0.80;;;0.80;;
19547;SDS011;9919;58.014;11.826;2023-07-29T03:20:27;0.90;;;0.90;;
19547;SDS011;9919;58.014;11.826;2023-07-29T03:22:28;0.90;;;0.90;;
19547;SDS011;9919;58.014;11.826;2023-07-29T03:24:29;1.10;;;1.10;;
19547;SDS011;9919;58.014;11.826;2023-07-29T03:26:31;0.60;;;0.60;;
19547;SDS011;9919;58.014;11.826;2023-07-29T03:28:33;0.73;;;0.73;;
19547;SDS011;9919;58.014;11.826;2023-07-29T03:30:34;0.90;;;0.90;;
19547;SDS011;9919;58.014;11.826;2023-07-29T03:32:39;1.08;;;1.08;;
19547;SDS011;9919;58.014;11.826;2023-07-29T03:34:43;0.60;;;0.60;;
19547;SDS011;9919;58.014;11.826;2023-07-29T03:36:44;1.00;;;0.90;;
19547;SDS011;9919;58.014;11.826;2023-07-29T03:38:47;0.57;;;0.57;;
19547;SDS011;9919;58.014;11.826;2023-07-29T03:40:50;0.75;;;0.75;;
19547;SDS011;9919;58.014;11.826;2023-07-29T03:42:51;0.85;;;0.85;;
19547;SDS011;9919;58.014;11.826;2023-07-29T03:44:53;0.93;;;0.93;;
19547;SDS011;9919;58.014;11.826;2023-07-29T03:46:54;0.90;;;0.90;;
19547;SDS011;9919;58.014;11.826;2023-07-29T03:48:56;1.05;;;1.00;;
19547;SDS011;9919;58.014;11.826;2023-07-29T03:50:57;0.90;;;0.90;;
19547;SDS011;9919;58.014;11.826;2023-07-29T03:52:59;0.95;;;0.95;;
19547;SDS011;9919;58.014;11.826;2023-07-29T03:55:01;0.90;;;0.90;;
19547;SDS011;9919;58.014;11.826;2023-07-29T03:57:02;0.70;;;0.70;;
19547;SDS011;9919;58.014;11.826;2023-07-29T03:59:05;0.88;;;0.88;;
19547;SDS011;9919;58.014;11.826;2023-07-29T04:01:06;0.80;;;0.80;;
19547;SDS011;9919;58.014;11.826;2023-07-29T04:03:08;0.82;;;0.82;;
19547;SDS011;9919;58.014;11.826;2023-07-29T04:05:10;0.93;;;0.90;;
19547;SDS011;9919;58.014;11.826;2023-07-29T04:07:11;0.98;;;0.90;;
19547;SDS011;9919;58.014;11.826;2023-07-29T04:09:13;1.10;;;0.90;;
19547;SDS011;9919;58.014;11.826;2023-07-29T04:11:15;1.05;;;1.02;;
19547;SDS011;9919;58.014;11.826;2023-07-29T04:13:17;0.80;;;0.80;;
19547;SDS011;9919;58.014;11.826;2023-07-29T04:15:18;1.80;;;0.82;;
19547;SDS011;9919;58.014;11.826;2023-07-29T04:17:20;0.80;;;0.80;;
19547;SDS011;9919;58.014;11.826;2023-07-29T04:19:21;0.90;;;0.90;;
19547;SDS011;9919;58.014;11.826;2023-07-29T04:21:23;0.80;;;0.80;;
19547;SDS011;9919;58.014;11.826;2023-07-29T04:23:24;0.88;;;0.88;;
19547;SDS011;9919;58.014;11.826;2023-07-29T04:25:27;0.75;;;0.75;;
19547;SDS011;9919;58.014;11.826;2023-07-29T04:27:28;0.77;;;0.77;;
19547;SDS011;9919;58.014;11.826;2023-07-29T04:29:29;0.77;;;0.77;;
19547;SDS011;9919;58.014;11.826;2023-07-29T04:31:31;0.68;;;0.68;;
19547;SDS011;9919;58.014;11.826;2023-07-29T04:33:32;1.02;;;1.00;;
19547;SDS011;9919;58.014;11.826;2023-07-29T04:35:34;0.80;;;0.80;;
19547;SDS011;9919;58.014;11.826;2023-07-29T04:37:35;0.93;;;0.93;;
19547;SDS011;9919;58.014;11.826;2023-07-29T04:39:36;1.00;;;1.00;;
19547;SDS011;9919;58.014;11.826;2023-07-29T04:41:38;0.80;;;0.80;;
19547;SDS011;9919;58.014;11.826;2023-07-29T04:43:39;1.00;;;1.00;;
19547;SDS011;9919;58.014;11.826;2023-07-29T04:45:44;0.90;;;0.90;;
19547;SDS011;9919;58.014;11.826;2023-07-29T04:47:45;0.93;;;0.93;;
19547;SDS011;9919;58.014;11.826;2023-07-29T04:49:47;0.93;;;0.93;;
19547;SDS011;9919;58.014;11.826;2023-07-29T04:51:48;0.82;;;0.82;;
19547;SDS011;9919;58.014;11.826;2023-07-29T04:53:50;0.90;;;0.90;;
19547;SDS011;9919;58.014;11.826;2023-07-29T04:55:51;0.80;;;0.80;;
19547;SDS011;9919;58.014;11.826;2023-07-29T04:57:52;0.90;;;0.90;;
19547;SDS011;9919;58.014;11.826;2023-07-29T04:59:54;1.20;;;1.10;;
19547;SDS011;9919;58.014;11.826;2023-07-29T05:01:57;0.82;;;0.82;;
19547;SDS011;9919;58.014;11.826;2023-07-29T05:03:58;0.80;;;0.80;;
19547;SDS011;9919;58.014;11.826;2023-07-29T05:05:59;1.10;;;1.00;;
19547;SDS011;9919;58.014;11.826;2023-07-29T05:08:01;0.65;;;0.63;;
19547;SDS011;9919;58.014;11.826;2023-07-29T05:10:03;0.90;;;0.90;;
19547;SDS011;9919;58.014;11.826;2023-07-29T05:12:05;0.98;;;0.93;;
19547;SDS011;9919;58.014;11.826;2023-07-29T05:14:08;0.85;;;0.82;;
19547;SDS011;9919;58.014;11.826;2023-07-29T05:16:10;0.73;;;0.73;;
19547;SDS011;9919;58.014;11.826;2023-07-29T05:18:12;0.90;;;0.90;;
19547;SDS011;9919;58.014;11.826;2023-07-29T05:20:13;0.60;;;0.60;;
19547;SDS011;9919;58.014;11.826;2023-07-29T05:22:14;0.80;;;0.80;;
19547;SDS011;9919;58.014;11.826;2023-07-29T05:24:16;1.48;;;1.13;;
19547;SDS011;9919;58.014;11.826;2023-07-29T05:26:17;0.70;;;0.70;;
19547;SDS011;9919;58.014;11.826;2023-07-29T05:28:20;0.80;;;0.80;;
19547;SDS011;9919;58.014;11.826;2023-07-29T05:30:21;1.35;;;0.75;;
19547;SDS011;9919;58.014;11.826;2023-07-29T05:32:23;0.90;;;0.90;;
19547;SDS011;9919;58.014;11.826;2023-07-29T05:34:26;0.63;;;0.63;;
19547;SDS011;9919;58.014;11.826;2023-07-29T05:36:28;0.85;;;0.85;;
19547;SDS011;9919;58.014;11.826;2023-07-29T05:38:30;1.23;;;1.08;;
19547;SDS011;9919;58.014;11.826;2023-07-29T05:40:32;1.10;;;1.10;;
19547;SDS011;9919;58.014;11.826;2023-07-29T05:42:34;0.70;;;0.70;;
19547;SDS011;9919;58.014;11.826;2023-07-29T05:44:35;0.80;;;0.80;;
19547;SDS011;9919;58.014;11.826;2023-07-29T05:46:36;0.77;;;0.77;;
19547;SDS011;9919;58.014;11.826;2023-07-29T05:48:38;0.98;;;0.98;;
19547;SDS011;9919;58.014;11.826;2023-07-29T05:50:39;0.60;;;0.60;;
19547;SDS011;9919;58.014;11.826;2023-07-29T05:52:41;0.70;;;0.70;;
19547;SDS011;9919;58.014;11.826;2023-07-29T05:54:42;1.30;;;0.98;;
19547;SDS011;9919;58.014;11.826;2023-07-29T05:56:44;1.00;;;1.00;;
19547;SDS011;9919;58.014;11.826;2023-07-29T05:58:45;0.65;;;0.65;;
19547;SDS011;9919;58.014;11.826;2023-07-29T06:00:47;1.00;;;1.00;;
19547;SDS011;9919;58.014;11.826;2023-07-29T06:02:48;1.48;;;1.10;;
19547;SDS011;9919;58.014;11.826;2023-07-29T06:04:49;0.60;;;0.60;;
19547;SDS011;9919;58.014;11.826;2023-07-29T06:06:52;0.88;;;0.88;;
19547;SDS011;9919;58.014;11.826;2023-07-29T06:08:55;0.90;;;0.68;;
19547;SDS011;9919;58.014;11.826;2023-07-29T06:10:58;0.77;;;0.77;;
19547;SDS011;9919;58.014;11.826;2023-07-29T06:12:59;1.10;;;1.00;;
19547;SDS011;9919;58.014;11.826;2023-07-29T06:15:00;0.70;;;0.70;;
19547;SDS011;9919;58.014;11.826;2023-07-29T06:17:02;1.05;;;1.05;;
19547;SDS011;9919;58.014;11.826;2023-07-29T06:19:04;0.77;;;0.70;;
19547;SDS011;9919;58.014;11.826;2023-07-29T06:21:05;0.70;;;0.70;;
19547;SDS011;9919;58.014;11.826;2023-07-29T06:23:08;1.10;;;1.00;;
19547;SDS011;9919;58.014;11.826;2023-07-29T06:25:09;1.00;;;1.00;;
19547;SDS011;9919;58.014;11.826;2023-07-29T06:27:11;1.05;;;0.95;;
19547;SDS011;9919;58.014;11.826;2023-07-29T06:29:12;1.13;;;0.85;;
19547;SDS011;9919;58.014;11.826;2023-07-29T06:31:13;1.00;;;1.00;;
19547;SDS011;9919;58.014;11.826;2023-07-29T06:33:15;0.98;;;0.98;;
19547;SDS011;9919;58.014;11.826;2023-07-29T06:35:16;0.88;;;0.80;;
19547;SDS011;9919;58.014;11.826;2023-07-29T06:37:17;0.77;;;0.77;;
19547;SDS011;9919;58.014;11.826;2023-07-29T06:39:19;0.80;;;0.80;;
19547;SDS011;9919;58.014;11.826;2023-07-29T06:41:20;0.90;;;0.90;;
19547;SDS011;9919;58.014;11.826;2023-07-29T06:43:21;0.80;;;0.80;;
19547;SDS011;9919;58.014;11.826;2023-07-29T06:45:23;0.98;;;0.98;;
19547;SDS011;9919;58.014;11.826;2023-07-29T06:47:24;1.10;;;0.98;;
19547;SDS011;9919;58.014;11.826;2023-07-29T06:49:26;1.02;;;0.88;;
19547;SDS011;9919;58.014;11.826;2023-07-29T06:51:27;0.75;;;0.75;;
19547;SDS011;9919;58.014;11.826;2023-07-29T06:53:35;0.77;;;0.77;;
19547;SDS011;9919;58.014;11.826;2023-07-29T06:55:37;1.08;;;1.08;;
19547;SDS011;9919;58.014;11.826;2023-07-29T06:57:39;0.90;;;0.90;;
19547;SDS011;9919;58.014;11.826;2023-07-29T06:59:40;0.60;;;0.60;;
19547;SDS011;9919;58.014;11.826;2023-07-29T07:01:42;0.93;;;0.93;;
19547;SDS011;9919;58.014;11.826;2023-07-29T07:03:43;0.98;;;0.98;;
19547;SDS011;9919;58.014;11.826;2023-07-29T07:05:44;1.20;;;1.20;;
19547;SDS011;9919;58.014;11.826;2023-07-29T07:07:46;1.17;;;1.00;;
19547;SDS011;9919;58.014;11.826;2023-07-29T07:09:49;1.02;;;1.00;;
19547;SDS011;9919;58.014;11.826;2023-07-29T07:11:51;0.80;;;0.80;;
19547;SDS011;9919;58.014;11.826;2023-07-29T07:13:52;0.90;;;0.90;;
19547;SDS011;9919;58.014;11.826;2023-07-29T07:15:55;1.02;;;1.02;;
19547;SDS011;9919;58.014;11.826;2023-07-29T07:17:57;1.10;;;1.00;;
19547;SDS011;9919;58.014;11.826;2023-07-29T07:19:58;0.90;;;0.90;;
19547;SDS011;9919;58.014;11.826;2023-07-29T07:21:59;0.98;;;0.88;;
19547;SDS011;9919;58.014;11.826;2023-07-29T07:24:01;1.92;;;1.30;;
19547;SDS011;9919;58.014;11.826;2023-07-29T07:26:02;0.95;;;0.95;;
19547;SDS011;9919;58.014;11.826;2023-07-29T07:28:03;1.15;;;1.08;;
19547;SDS011;9919;58.014;11.826;2023-07-29T07:30:05;1.63;;;0.93;;
19547;SDS011;9919;58.014;11.826;2023-07-29T07:32:07;0.65;;;0.65;;
19547;SDS011;9919;58.014;11.826;2023-07-29T07:34:08;1.35;;;0.93;;
19547;SDS011;9919;58.014;11.826;2023-07-29T07:36:10;0.90;;;0.90;;
19547;SDS011;9919;58.014;11.826;2023-07-29T07:38:11;0.90;;;0.90;;
19547;SDS011;9919;58.014;11.826;2023-07-29T07:40:12;1.08;;;1.00;;
19547;SDS011;9919;58.014;11.826;2023-07-29T07:42:14;2.25;;;0.88;;
19547;SDS011;9919;58.014;11.826;2023-07-29T07:44:15;0.90;;;0.90;;
19547;SDS011;9919;58.014;11.826;2023-07-29T07:46:17;0.85;;;0.85;;
19547;SDS011;9919;58.014;11.826;2023-07-29T07:48:19;1.13;;;1.02;;
19547;SDS011;9919;58.014;11.826;2023-07-29T07:50:20;0.77;;;0.77;;
19547;SDS011;9919;58.014;11.826;2023-07-29T07:52:21;1.00;;;1.00;;
19547;SDS011;9919;58.014;11.826;2023-07-29T07:54:23;1.02;;;0.93;;
19547;SDS011;9919;58.014;11.826;2023-07-29T07:56:24;0.85;;;0.85;;
19547;SDS011;9919;58.014;11.826;2023-07-29T07:58:25;0.65;;;0.65;;
19547;SDS011;9919;58.014;11.826;2023-07-29T08:00:27;0.80;;;0.80;;
19547;SDS011;9919;58.014;11.826;2023-07-29T08:02:29;0.63;;;0.63;;
19547;SDS011;9919;58.014;11.826;2023-07-29T08:04:32;1.27;;;1.20;;
19547;SDS011;9919;58.014;11.826;2023-07-29T08:06:33;0.95;;;0.95;;
19547;SDS011;9919;58.014;11.826;2023-07-29T08:08:36;0.80;;;0.80;;
19547;SDS011;9919;58.014;11.826;2023-07-29T08:10:37;1.25;;;0.82;;
19547;SDS011;9919;58.014;11.826;2023-07-29T08:12:38;1.00;;;1.00;;
19547;SDS011;9919;58.014;11.826;2023-07-29T08:14:41;0.80;;;0.80;;
19547;SDS011;9919;58.014;11.826;2023-07-29T08:16:42;0.50;;;0.50;;
19547;SDS011;9919;58.014;11.826;2023-07-29T08:18:44;0.70;;;0.70;;
19547;SDS011;9919;58.014;11.826;2023-07-29T08:20:57;0.90;;;0.90;;
19547;SDS011;9919;58.014;11.826;2023-07-29T08:22:59;0.52;;;0.52;;
19547;SDS011;9919;58.014;11.826;2023-07-29T08:25:00;1.35;;;0.60;;
19547;SDS011;9919;58.014;11.826;2023-07-29T08:27:02;1.10;;;1.00;;
19547;SDS011;9919;58.014;11.826;2023-07-29T08:29:03;0.90;;;0.90;;
19547;SDS011;9919;58.014;11.826;2023-07-29T08:31:05;0.80;;;0.80;;
19547;SDS011;9919;58.014;11.826;2023-07-29T08:33:07;0.82;;;0.82;;
19547;SDS011;9919;58.014;11.826;2023-07-29T08:35:09;1.10;;;1.00;;
19547;SDS011;9919;58.014;11.826;2023-07-29T08:37:10;0.70;;;0.70;;
19547;SDS011;9919;58.014;11.826;2023-07-29T08:39:13;0.70;;;0.70;;
19547;SDS011;9919;58.014;11.826;2023-07-29T08:43:23;0.80;;;0.80;;
19547;SDS011;9919;58.014;11.826;2023-07-29T08:45:34;0.85;;;0.85;;
19547;SDS011;9919;58.014;11.826;2023-07-29T08:47:37;0.93;;;0.93;;
19547;SDS011;9919;58.014;11.826;2023-07-29T08:49:39;0.65;;;0.65;;
19547;SDS011;9919;58.014;11.826;2023-07-29T08:51:44;1.00;;;0.95;;
19547;SDS011;9919;58.014;11.826;2023-07-29T08:53:47;0.73;;;0.73;;
19547;SDS011;9919;58.014;11.826;2023-07-29T08:55:48;1.25;;;0.80;;
19547;SDS011;9919;58.014;11.826;2023-07-29T08:57:50;0.60;;;0.60;;
19547;SDS011;9919;58.014;11.826;2023-07-29T08:59:51;1.00;;;0.90;;
19547;SDS011;9919;58.014;11.826;2023-07-29T09:01:53;1.83;;;1.23;;
19547;SDS011;9919;58.014;11.826;2023-07-29T09:03:56;1.02;;;1.02;;
19547;SDS011;9919;58.014;11.826;2023-07-29T09:05:58;1.10;;;0.85;;
19547;SDS011;9919;58.014;11.826;2023-07-29T09:08:00;0.75;;;0.75;;
19547;SDS011;9919;58.014;11.826;2023-07-29T09:10:04;1.02;;;1.00;;
19547;SDS011;9919;58.014;11.826;2023-07-29T09:12:08;1.30;;;1.00;;
19547;SDS011;9919;58.014;11.826;2023-07-29T09:14:11;0.90;;;0.90;;
19547;SDS011;9919;58.014;11.826;2023-07-29T09:16:15;0.90;;;0.90;;
19547;SDS011;9919;58.014;11.826;2023-07-29T09:18:17;1.15;;;1.00;;
19547;SDS011;9919;58.014;11.826;2023-07-29T09:20:26;0.60;;;0.60;;
19547;SDS011;9919;58.014;11.826;2023-07-29T09:22:28;1.02;;;1.02;;
19547;SDS011;9919;58.014;11.826;2023-07-29T09:24:29;0.80;;;0.80;;
19547;SDS011;9919;58.014;11.826;2023-07-29T09:26:34;2.03;;;1.00;;
19547;SDS011;9919;58.014;11.826;2023-07-29T09:28:36;1.17;;;1.08;;
19547;SDS011;9919;58.014;11.826;2023-07-29T09:30:39;0.90;;;0.90;;
19547;SDS011;9919;58.014;11.826;2023-07-29T09:32:45;0.90;;;0.90;;
19547;SDS011;9919;58.014;11.826;2023-07-29T09:34:47;2.53;;;1.08;;
19547;SDS011;9919;58.014;11.826;2023-07-29T09:36:50;0.98;;;0.98;;
19547;SDS011;9919;58.014;11.826;2023-07-29T09:38:52;0.95;;;0.95;;
19547;SDS011;9919;58.014;11.826;2023-07-29T09:40:55;1.23;;;0.80;;
19547;SDS011;9919;58.014;11.826;2023-07-29T09:42:57;0.80;;;0.80;;
19547;SDS011;9919;58.014;11.826;2023-07-29T09:44:58;1.05;;;1.05;;
19547;SDS011;9919;58.014;11.826;2023-07-29T09:46:59;1.08;;;1.08;;
19547;SDS011;9919;58.014;11.826;2023-07-29T09:49:02;1.17;;;1.05;;
19547;SDS011;9919;58.014;11.826;2023-07-29T09:51:13;1.30;;;1.20;;
19547;SDS011;9919;58.014;11.826;2023-07-29T09:53:15;0.65;;;0.65;;
19547;SDS011;9919;58.014;11.826;2023-07-29T09:55:20;1.10;;;1.02;;
19547;SDS011;9919;58.014;11.826;2023-07-29T09:57:23;1.00;;;1.00;;
19547;SDS011;9919;58.014;11.826;2023-07-29T09:59:24;0.85;;;0.85;;
19547;SDS011;9919;58.014;11.826;2023-07-29T10:01:26;1.02;;;0.95;;
19547;SDS011;9919;58.014;11.826;2023-07-29T10:03:28;1.30;;;1.20;;
19547;SDS011;9919;58.014;11.826;2023-07-29T10:05:30;1.40;;;0.90;;
19547;SDS011;9919;58.014;11.826;2023-07-29T10:07:32;0.88;;;0.88;;
19547;SDS011;9919;58.014;11.826;2023-07-29T10:09:40;1.52;;;1.20;;
19547;SDS011;9919;58.014;11.826;2023-07-29T10:11:41;1.40;;;1.30;;
19547;SDS011;9919;58.014;11.826;2023-07-29T10:13:42;1.35;;;1.25;;
19547;SDS011;9919;58.014;11.826;2023-07-29T10:15:44;3.65;;;1.70;;
19547;SDS011;9919;58.014;11.826;2023-07-29T10:17:46;1.88;;;1.63;;
19547;SDS011;9919;58.014;11.826;2023-07-29T10:19:48;2.50;;;1.27;;
19547;SDS011;9919;58.014;11.826;2023-07-29T10:21:50;2.72;;;1.40;;
19547;SDS011;9919;58.014;11.826;2023-07-29T10:23:53;1.55;;;1.33;;
19547;SDS011;9919;58.014;11.826;2023-07-29T10:26:04;2.63;;;1.30;;
19547;SDS011;9919;58.014;11.826;2023-07-29T10:28:06;4.82;;;1.60;;
19547;SDS011;9919;58.014;11.826;2023-07-29T10:30:08;3.42;;;1.70;;
19547;SDS011;9919;58.014;11.826;2023-07-29T10:32:12;1.42;;;1.33;;
19547;SDS011;9919;58.014;11.826;2023-07-29T10:34:13;2.05;;;1.45;;
19547;SDS011;9919;58.014;11.826;2023-07-29T10:36:15;2.20;;;1.85;;
19547;SDS011;9919;58.014;11.826;2023-07-29T10:38:16;1.83;;;1.60;;
19547;SDS011;9919;58.014;11.826;2023-07-29T10:40:19;1.58;;;1.45;;
19547;SDS011;9919;58.014;11.826;2023-07-29T10:42:20;3.38;;;2.05;;
19547;SDS011;9919;58.014;11.826;2023-07-29T10:46:46;2.97;;;1.42;;
19547;SDS011;9919;58.014;11.826;2023-07-29T10:51:20;6.05;;;1.50;;
19547;SDS011;9919;58.014;11.826;2023-07-29T10:53:33;1.52;;;1.42;;
19547;SDS011;9919;58.014;11.826;2023-07-29T10:55:35;1.80;;;1.50;;
19547;SDS011;9919;58.014;11.826;2023-07-29T10:57:38;1.50;;;1.40;;
19547;SDS011;9919;58.014;11.826;2023-07-29T10:59:43;1.58;;;1.48;;
19547;SDS011;9919;58.014;11.826;2023-07-29T11:01:58;1.73;;;1.48;;
19547;SDS011;9919;58.014;11.826;2023-07-29T11:06:23;1.10;;;1.10;;
19547;SDS011;9919;58.014;11.826;2023-07-29T11:08:31;2.22;;;1.40;;
19547;SDS011;9919;58.014;11.826;2023-07-29T11:10:41;2.40;;;1.50;;
19547;SDS011;9919;58.014;11.826;2023-07-29T11:12:46;2.55;;;1.77;;
19547;SDS011;9919;58.014;11.826;2023-07-29T11:14:48;4.43;;;1.40;;
19547;SDS011;9919;58.014;11.826;2023-07-29T11:16:50;1.92;;;1.40;;
19547;SDS011;9919;58.014;11.826;2023-07-29T11:18:51;1.65;;;1.55;;
19547;SDS011;9919;58.014;11.826;2023-07-29T11:20:53;1.70;;;1.60;;
19547;SDS011;9919;58.014;11.826;2023-07-29T11:22:57;3.03;;;1.88;;
19547;SDS011;9919;58.014;11.826;2023-07-29T11:25:00;5.25;;;1.63;;
19547;SDS011;9919;58.014;11.826;2023-07-29T11:27:02;2.95;;;1.70;;
19547;SDS011;9919;58.014;11.826;2023-07-29T11:29:04;1.52;;;1.40;;
19547;SDS011;9919;58.014;11.826;2023-07-29T11:31:05;2.17;;;1.67;;
19547;SDS011;9919;58.014;11.826;2023-07-29T11:33:06;2.60;;;1.63;;
19547;SDS011;9919;58.014;11.826;2023-07-29T11:35:09;1.45;;;1.38;;
19547;SDS011;9919;58.014;11.826;2023-07-29T11:37:11;1.63;;;1.52;;
19547;SDS011;9919;58.014;11.826;2023-07-29T11:39:13;1.90;;;1.70;;
19547;SDS011;9919;58.014;11.826;2023-07-29T11:41:18;2.17;;;2.05;;
19547;SDS011;9919;58.014;11.826;2023-07-29T11:43:21;2.03;;;1.45;;
19547;SDS011;9919;58.014;11.826;2023-07-29T11:45:23;1.58;;;1.48;;
19547;SDS011;9919;58.014;11.826;2023-07-29T11:47:25;2.08;;;1.67;;
19547;SDS011;9919;58.014;11.826;2023-07-29T11:49:27;3.63;;;1.60;;
19547;SDS011;9919;58.014;11.826;2023-07-29T11:51:28;1.98;;;1.45;;
19547;SDS011;9919;58.014;11.826;2023-07-29T11:53:30;1.52;;;1.42;;
19547;SDS011;9919;58.014;11.826;2023-07-29T11:55:31;1.63;;;1.40;;
19547;SDS011;9919;58.014;11.826;2023-07-29T11:57:35;2.45;;;1.75;;
19547;SDS011;9919;58.014;11.826;2023-07-29T11:59:38;1.90;;;1.55;;
19547;SDS011;9919;58.014;11.826;2023-07-29T12:01:40;1.67;;;1.58;;
19547;SDS011;9919;58.014;11.826;2023-07-29T12:03:41;2.08;;;1.30;;
19547;SDS011;9919;58.014;11.826;2023-07-29T12:05:45;1.73;;;1.58;;
19547;SDS011;9919;58.014;11.826;2023-07-29T12:07:46;1.40;;;1.33;;
19547;SDS011;9919;58.014;11.826;2023-07-29T12:09:48;1.88;;;1.77;;
19547;SDS011;9919;58.014;11.826;2023-07-29T12:11:50;2.92;;;1.80;;
19547;SDS011;9919;58.014;11.826;2023-07-29T12:13:55;1.58;;;1.48;;
19547;SDS011;9919;58.014;11.826;2023-07-29T12:16:02;2.65;;;1.77;;
19547;SDS011;9919;58.014;11.826;2023-07-29T12:18:04;1.70;;;1.58;;
19547;SDS011;9919;58.014;11.826;2023-07-29T12:20:07;3.50;;;1.27;;
19547;SDS011;9919;58.014;11.826;2023-07-29T12:22:10;1.60;;;1.50;;
19547;SDS011;9919;58.014;11.826;2023-07-29T12:24:12;1.63;;;1.52;;
19547;SDS011;9919;58.014;11.826;2023-07-29T12:26:14;1.80;;;1.70;;
19547;SDS011;9919;58.014;11.826;2023-07-29T12:28:16;1.77;;;1.67;;
19547;SDS011;9919;58.014;11.826;2023-07-29T12:30:20;3.70;;;2.05;;